Terminal Aerodrome Forecast
Issued by NWS

Home | Current Version | Previous Version | Text Only | Print | Product List | Glossary On
Versions: 1 2 3 4 5 6 7 8 9 10 11 12 13 14 15 16
000
FTUS45 KRIW 180500
TAFCPR
TAF
KCPR 180520Z 1806/1906 22008KT P6SM FEW120 SCT200
     FM181100 22015G23KT P6SM SCT120 BKN200
     FM181500 23025G35KT P6SM SCT250
     FM182200 25020G30KT P6SM FEW100 BKN200
     FM190200 26015G25KT P6SM SCT100 BKN150=

USA.gov is the U.S. government's official web portal to all federal, state and local government web resources and services.